Time,TemperatureF,DewpointF,PressureIn,WindDirection,WindDirectionDegrees,WindSpeedMPH,WindSpeedGustMPH,Humidity,HourlyPrecipIn,Conditions,Clouds,dailyrainin,SoftwareType,DateUTC
2013-04-01 00:00:00,41.7,39.8,29.66,WNW,290,0.0,0.0,93,0.01,,-RA,0.08,VWS V14.01,2013-04-01 04:00:00,
2013-04-01 00:05:00,41.6,39.7,29.66,WNW,288,0.0,0.0,93,0.00,,,0.00,VWS V14.01,2013-04-01 04:05:00,
2013-04-01 00:10:00,41.7,39.8,29.66,WSW,258,0.0,0.0,93,0.00,,,0.00,VWS V14.01,2013-04-01 04:10:00,
2013-04-01 00:12:00,41.7,39.8,29.66,NW,308,0.0,0.0,93,0.00,,,0.00,VWS V14.01,2013-04-01 04:12:00,
2013-04-01 00:17:00,41.6,39.7,29.66,ENE,71,0.0,3.0,93,0.00,,,0.00,VWS V14.01,2013-04-01 04:17:00,
2013-04-01 00:22:00,41.6,39.7,29.66,NW,304,0.0,3.0,93,0.00,,,0.00,VWS V14.01,2013-04-01 04:22:00,
2013-04-01 00:27:00,41.6,39.7,29.65,North,360,0.0,3.0,93,0.00,,,0.00,VWS V14.01,2013-04-01 04:27:00,
2013-04-01 00:32:00,41.6,40.0,29.66,NW,316,0.0,2.0,94,0.00,,,0.00,VWS V14.01,2013-04-01 04:32:00,
2013-04-01 00:37:00,41.5,39.9,29.65,WNW,301,0.0,3.0,94,0.00,,,0.00,VWS V14.01,2013-04-01 04:37:00,
2013-04-01 00:42:00,41.5,39.9,29.65,WSW,256,1.0,3.0,94,0.00,,,0.00,VWS V14.01,2013-04-01 04:42:00,
2013-04-01 00:47:00,41.5,39.9,29.65,NNW,340,0.0,0.0,94,0.00,,,0.00,VWS V14.01,2013-04-01 04:47:00,
2013-04-01 00:52:00,41.5,39.9,29.65,WNW,294,1.0,3.0,94,0.00,,,0.00,VWS V14.01,2013-04-01 04:52:00,
2013-04-01 00:57:00,41.6,40.0,29.65,WNW,294,0.0,3.0,94,0.00,,,0.00,VWS V14.01,2013-04-01 04:57:00,
2013-04-01 01:02:00,41.5,39.9,29.65,West,278,0.0,3.0,94,0.00,,,0.00,VWS V14.01,2013-04-01 05:02:00,
2013-04-01 01:07:00,41.5,39.9,29.65,WNW,294,0.0,3.0,94,0.00,,,0.00,VWS V14.01,2013-04-01 05:07:00,
2013-04-01 01:12:00,41.5,39.9,29.65,WSW,250,5.0,5.0,94,0.00,,,0.00,VWS V14.01,2013-04-01 05:12:00,
2013-04-01 01:17:00,41.5,39.9,29.65,West,281,0.0,3.0,94,0.00,,,0.00,VWS V14.01,2013-04-01 05:17:00,
2013-04-01 01:22:00,41.6,40.0,29.65,NE,42,3.0,3.0,94,0.00,,,0.00,VWS V14.01,2013-04-01 05:22:00,
2013-04-01 01:27:00,41.6,40.0,29.65,NNE,23,0.0,3.0,94,0.00,,,0.00,VWS V14.01,2013-04-01 05:27:00,
2013-04-01 01:32:00,41.6,40.0,29.65,WNW,295,0.0,4.0,94,0.00,,,0.00,VWS V14.01,2013-04-01 05:32:00,
2013-04-01 01:37:00,41.6,40.0,29.65,West,259,0.0,4.0,94,0.00,,,0.00,VWS V14.01,2013-04-01 05:37:00,
2013-04-01 01:42:00,41.6,40.0,29.65,North,11,0.0,3.0,94,0.00,,,0.00,VWS V14.01,2013-04-01 05:42:00,
2013-04-01 01:47:00,41.6,40.0,29.64,WSW,250,0.0,1.0,94,0.00,,,0.00,VWS V14.01,2013-04-01 05:47:00,
2013-04-01 01:52:00,41.6,40.0,29.64,West,260,1.0,4.0,94,0.00,,,0.00,VWS V14.01,2013-04-01 05:52:00,
2013-04-01 01:57:00,41.7,40.1,29.64,NNW,347,0.0,3.0,94,0.00,,,0.00,VWS V14.01,2013-04-01 05:57:00,
2013-04-01 02:02:00,41.6,40.0,29.64,NNE,15,1.0,2.0,94,0.00,,,0.00,VWS V14.01,2013-04-01 06:02:00,
2013-04-01 02:07:00,41.6,40.0,29.65,WSW,258,1.0,3.0,94,0.00,,,0.00,VWS V14.01,2013-04-01 06:07:00,
2013-04-01 02:12:00,41.5,39.9,29.64,West,259,4.0,4.0,94,0.00,,,0.00,VWS V14.01,2013-04-01 06:12:00,
2013-04-01 02:17:00,41.5,39.9,29.65,WSW,240,2.0,3.0,94,0.00,,,0.00,VWS V14.01,2013-04-01 06:17:00,
2013-04-01 02:22:00,41.5,39.9,29.65,NW,319,2.0,3.0,94,0.00,,,0.00,VWS V14.01,2013-04-01 06:22:00,
2013-04-01 02:27:00,41.3,39.7,29.65,NW,321,1.0,4.0,94,0.00,,,0.00,VWS V14.01,2013-04-01 06:27:00,
2013-04-01 02:32:00,41.2,39.6,29.65,West,264,0.0,2.0,94,0.00,,,0.00,VWS V14.01,2013-04-01 06:32:00,
2013-04-01 02:37:00,41.1,39.5,29.66,NNE,27,1.0,2.0,94,0.00,,,0.00,VWS V14.01,2013-04-01 06:37:00,
2013-04-01 02:42:00,41.1,39.5,29.66,West,276,1.0,2.0,94,0.00,,,0.00,VWS V14.01,2013-04-01 06:42:00,
2013-04-01 02:47:00,41.2,39.6,29.66,WSW,238,2.0,3.0,94,0.00,,,0.00,VWS V14.01,2013-04-01 06:47:00,
2013-04-01 02:52:00,41.3,39.7,29.66,SW,236,4.0,5.0,94,0.00,,,0.00,VWS V14.01,2013-04-01 06:52:00,
2013-04-01 02:57:00,41.3,39.7,29.67,WNW,284,1.0,5.0,94,0.00,,,0.00,VWS V14.01,2013-04-01 06:57:00,
2013-04-01 03:02:00,41.3,39.7,29.67,WSW,252,0.0,2.0,94,0.00,,,0.00,VWS V14.01,2013-04-01 07:02:00,
2013-04-01 03:07:00,41.3,39.7,29.67,WSW,250,0.0,2.0,94,0.00,,,0.00,VWS V14.01,2013-04-01 07:07:00,
2013-04-01 03:12:00,41.3,39.7,29.67,WSW,257,0.0,3.0,94,0.00,,,0.00,VWS V14.01,2013-04-01 07:12:00,
2013-04-01 03:17:00,41.3,39.7,29.66,SSW,212,0.0,2.0,94,0.00,,OVC018,0.00,VWS V14.01,2013-04-01 07:17:00,
2013-04-01 03:22:00,41.2,39.6,29.66,West,273,1.0,2.0,94,0.00,,OVC018,0.00,VWS V14.01,2013-04-01 07:22:00,
2013-04-01 03:27:00,41.1,39.5,29.66,WSW,253,1.0,2.0,94,0.00,,OVC018,0.00,VWS V14.01,2013-04-01 07:27:00,
2013-04-01 03:32:00,41.1,39.5,29.66,SW,226,1.0,1.0,94,0.00,,OVC018,0.00,VWS V14.01,2013-04-01 07:32:00,
2013-04-01 03:37:00,41.0,39.4,29.66,SW,236,1.0,2.0,94,0.00,,OVC018,0.00,VWS V14.01,2013-04-01 07:37:00,
2013-04-01 03:42:00,41.1,39.5,29.66,West,263,3.0,4.0,94,0.00,,OVC018,0.00,VWS V14.01,2013-04-01 07:42:00,
2013-04-01 03:47:00,41.1,39.5,29.66,West,266,1.0,2.0,94,0.00,,OVC018,0.00,VWS V14.01,2013-04-01 07:47:00,
2013-04-01 03:52:00,41.2,39.6,29.65,WNW,283,1.0,4.0,94,0.00,,OVC018,0.00,VWS V14.01,2013-04-01 07:52:00,
2013-04-01 03:57:00,41.3,39.7,29.66,SSW,212,0.0,8.0,94,0.00,,OVC018,0.00,VWS V14.01,2013-04-01 07:57:00,
2013-04-01 04:02:00,41.2,39.6,29.66,SW,233,0.0,1.0,94,0.00,,OVC004,0.00,VWS V14.01,2013-04-01 08:02:00,
2013-04-01 04:07:00,41.3,39.7,29.66,WSW,253,1.0,7.0,94,0.00,,OVC004,0.00,VWS V14.01,2013-04-01 08:07:00,
2013-04-01 04:12:00,41.4,39.8,29.66,WNW,299,0.0,8.0,94,0.00,,OVC004,0.00,VWS V14.01,2013-04-01 08:12:00,
2013-04-01 04:17:00,41.4,39.8,29.66,NNW,347,0.0,2.0,94,0.00,,OVC004,0.00,VWS V14.01,2013-04-01 08:17:00,
2013-04-01 04:22:00,41.5,39.9,29.66,WNW,288,4.0,5.0,94,0.00,,OVC004,0.00,VWS V14.01,2013-04-01 08:22:00,
2013-04-01 04:27:00,41.6,40.0,29.66,West,281,0.0,8.0,94,0.00,,OVC004,0.00,VWS V14.01,2013-04-01 08:27:00,
2013-04-01 04:32:00,41.7,40.1,29.67,WNW,284,1.0,1.0,94,0.00,,OVC004,0.00,VWS V14.01,2013-04-01 08:32:00,
2013-04-01 04:37:00,41.7,40.1,29.67,WNW,288,6.0,7.0,94,0.00,,OVC004,0.00,VWS V14.01,2013-04-01 08:37:00,
2013-04-01 04:42:00,41.8,40.2,29.67,West,273,4.0,7.0,94,0.00,,OVC004,0.00,VWS V14.01,2013-04-01 08:42:00,
2013-04-01 04:47:00,41.9,40.3,29.67,WNW,283,1.0,4.0,94,0.00,,OVC004,0.00,VWS V14.01,2013-04-01 08:47:00,
2013-04-01 04:52:00,41.9,40.3,29.67,WSW,256,4.0,5.0,94,0.00,,OVC004,0.00,VWS V14.01,2013-04-01 08:52:00,
2013-04-01 04:57:00,41.9,40.3,29.67,WNW,299,0.0,5.0,94,0.00,,OVC004,0.00,VWS V14.01,2013-04-01 08:57:00,
2013-04-01 05:02:00,41.9,40.3,29.67,West,267,1.0,5.0,94,0.00,,OVC004,0.00,VWS V14.01,2013-04-01 09:02:00,
2013-04-01 05:07:00,41.9,40.3,29.67,WSW,256,3.0,5.0,94,0.00,,OVC004,0.00,VWS V14.01,2013-04-01 09:07:00,
2013-04-01 05:12:00,41.8,40.2,29.67,West,260,1.0,5.0,94,0.00,,OVC004,0.00,VWS V14.01,2013-04-01 09:12:00,
2013-04-01 05:17:00,41.8,40.2,29.67,North,11,0.0,5.0,94,0.00,,OVC004,0.00,VWS V14.01,2013-04-01 09:17:00,
2013-04-01 05:22:00,41.8,40.2,29.67,SE,143,0.0,5.0,94,0.00,,OVC004,0.00,VWS V14.01,2013-04-01 09:22:00,
2013-04-01 05:27:00,41.8,40.2,29.67,NNW,338,0.0,5.0,94,0.00,,OVC004,0.00,VWS V14.01,2013-04-01 09:27:00,
2013-04-01 05:32:00,41.8,40.2,29.67,NW,304,0.0,1.0,94,0.00,,OVC006,0.00,VWS V14.01,2013-04-01 09:32:00,
2013-04-01 05:37:00,41.7,40.1,29.67,WSW,243,2.0,4.0,94,0.00,,OVC006,0.00,VWS V14.01,2013-04-01 09:37:00,
2013-04-01 05:42:00,41.7,40.1,29.67,WSW,256,2.0,6.0,94,0.00,,OVC006,0.00,VWS V14.01,2013-04-01 09:42:00,
2013-04-01 05:47:00,41.7,40.1,29.67,North,11,0.0,0.0,94,0.00,,OVC006,0.00,VWS V14.01,2013-04-01 09:47:00,
2013-04-01 05:52:00,41.6,40.0,29.67,WSW,242,0.0,2.0,94,0.00,,OVC006,0.00,VWS V14.01,2013-04-01 09:52:00,
2013-04-01 05:57:00,41.6,40.0,29.67,WSW,251,1.0,5.0,94,0.00,,OVC006,0.00,VWS V14.01,2013-04-01 09:57:00,
2013-04-01 06:02:00,41.5,39.6,29.67,WSW,243,2.0,6.0,93,0.00,,OVC006,0.00,VWS V14.01,2013-04-01 10:02:00,
2013-04-01 06:07:00,41.5,39.6,29.67,NW,320,2.0,6.0,93,0.00,,OVC006,0.00,VWS V14.01,2013-04-01 10:07:00,
2013-04-01 06:12:00,41.4,39.5,29.67,NW,306,2.0,6.0,93,0.00,,OVC006,0.00,VWS V14.01,2013-04-01 10:12:00,
2013-04-01 06:17:00,41.3,39.4,29.67,West,264,3.0,3.0,93,0.00,,OVC006,0.00,VWS V14.01,2013-04-01 10:17:00,
2013-04-01 06:22:00,41.3,39.4,29.66,NNW,335,0.0,3.0,93,0.00,,OVC006,0.00,VWS V14.01,2013-04-01 10:22:00,
2013-04-01 06:27:00,41.2,39.3,29.66,WNW,289,0.0,3.0,93,0.00,,OVC006,0.00,VWS V14.01,2013-04-01 10:27:00,
2013-04-01 06:32:00,41.1,39.2,29.66,WSW,249,0.0,1.0,93,0.00,,OVC006,0.00,VWS V14.01,2013-04-01 10:32:00,
2013-04-01 06:37:00,40.9,39.0,29.66,WSW,258,1.0,2.0,93,0.00,,OVC006,0.00,VWS V14.01,2013-04-01 10:37:00,
2013-04-01 06:42:00,40.9,39.0,29.66,WSW,252,0.0,2.0,93,0.00,,OVC006,0.00,VWS V14.01,2013-04-01 10:42:00,
2013-04-01 06:47:00,40.8,38.9,29.66,SW,232,0.0,2.0,93,0.00,,OVC006,0.00,VWS V14.01,2013-04-01 10:47:00,
2013-04-01 06:52:00,40.8,39.2,29.66,WSW,253,0.0,2.0,94,0.00,,OVC006,0.00,VWS V14.01,2013-04-01 10:52:00,
2013-04-01 06:57:00,40.8,39.2,29.66,WSW,245,1.0,2.0,94,0.00,,OVC006,0.00,VWS V14.01,2013-04-01 10:57:00,
2013-04-01 07:02:00,40.7,39.1,29.66,WSW,245,0.0,2.0,94,0.00,,,0.00,VWS V14.01,2013-04-01 11:02:00,
2013-04-01 07:07:00,40.6,38.7,29.66,WSW,243,1.0,2.0,93,0.00,,,0.00,VWS V14.01,2013-04-01 11:07:00,
2013-04-01 07:12:00,40.7,39.1,29.66,WSW,243,0.0,2.0,94,0.00,,,0.00,VWS V14.01,2013-04-01 11:12:00,
2013-04-01 07:17:00,40.7,39.1,29.67,WSW,243,0.0,2.0,94,0.00,,,0.00,VWS V14.01,2013-04-01 11:17:00,
2013-04-01 07:22:00,40.7,39.1,29.67,SW,229,1.0,2.0,94,0.00,,,0.00,VWS V14.01,2013-04-01 11:22:00,
2013-04-01 07:27:00,40.7,39.1,29.67,West,262,1.0,3.0,94,0.00,,,0.00,VWS V14.01,2013-04-01 11:27:00,
2013-04-01 07:32:00,40.8,39.2,29.67,West,274,3.0,3.0,94,0.00,,,0.00,VWS V14.01,2013-04-01 11:32:00,
2013-04-01 07:37:00,40.9,39.3,29.66,WSW,242,0.0,3.0,94,0.00,,,0.00,VWS V14.01,2013-04-01 11:37:00,
2013-04-01 07:42:00,41.0,39.4,29.66,West,264,1.0,3.0,94,0.00,,,0.00,VWS V14.01,2013-04-01 11:42:00,
2013-04-01 07:47:00,41.1,39.5,29.66,West,263,0.0,1.0,94,0.00,,,0.00,VWS V14.01,2013-04-01 11:47:00,
2013-04-01 07:52:00,41.2,39.6,29.66,WNW,294,3.0,3.0,94,0.00,,,0.00,VWS V14.01,2013-04-01 11:52:00,
2013-04-01 07:57:00,41.3,39.7,29.66,WSW,243,1.0,5.0,94,0.00,,,0.00,VWS V14.01,2013-04-01 11:57:00,
2013-04-01 08:02:00,41.3,39.7,29.66,WSW,240,0.0,5.0,94,0.00,,,0.00,VWS V14.01,2013-04-01 12:02:00,
2013-04-01 08:08:00,41.5,39.9,29.66,WSW,253,0.0,5.0,94,0.00,,,0.00,VWS V14.01,2013-04-01 12:08:00,
2013-04-01 08:13:00,41.6,40.0,29.66,SW,229,1.0,5.0,94,0.00,,,0.00,VWS V14.01,2013-04-01 12:13:00,
2013-04-01 08:18:00,41.7,40.1,29.66,NW,319,0.0,5.0,94,0.00,,,0.00,VWS V14.01,2013-04-01 12:18:00,
2013-04-01 08:23:00,42.0,40.4,29.66,NE,52,1.0,6.0,94,0.00,,,0.00,VWS V14.01,2013-04-01 12:23:00,
2013-04-01 08:28:00,42.3,40.7,29.66,West,270,2.0,5.0,94,0.00,,,0.00,VWS V14.01,2013-04-01 12:28:00,
2013-04-01 08:33:00,42.6,40.7,29.66,West,270,0.0,2.0,93,0.00,,,0.00,VWS V14.01,2013-04-01 12:33:00,
2013-04-01 08:38:00,42.8,40.9,29.66,West,269,2.0,2.0,93,0.00,,,0.00,VWS V14.01,2013-04-01 12:38:00,
2013-04-01 08:43:00,43.1,41.2,29.66,SW,228,0.0,2.0,93,0.00,,,0.00,VWS V14.01,2013-04-01 12:43:00,
2013-04-01 08:48:00,43.3,41.4,29.66,WSW,249,0.0,4.0,93,0.00,,,0.00,VWS V14.01,2013-04-01 12:48:00,
2013-04-01 08:55:00,44.1,42.2,29.65,SSW,212,0.0,4.0,93,0.00,,,0.00,VWS V14.01,2013-04-01 12:55:00,
2013-04-01 09:00:00,44.8,42.9,29.65,South,169,0.0,0.0,93,0.00,,,0.00,VWS V14.01,2013-04-01 13:00:00,
2013-04-01 09:05:00,44.7,42.8,29.65,NNW,338,0.0,4.0,93,0.00,,,0.00,VWS V14.01,2013-04-01 13:05:00,
2013-04-01 09:10:00,44.8,42.6,29.66,WSW,240,0.0,4.0,92,0.00,,,0.00,VWS V14.01,2013-04-01 13:10:00,
2013-04-01 09:15:00,44.9,42.7,29.66,WSW,256,1.0,2.0,92,0.00,,,0.00,VWS V14.01,2013-04-01 13:15:00,
2013-04-01 09:20:00,45.2,43.0,29.66,SW,218,0.0,6.0,92,0.00,,,0.00,VWS V14.01,2013-04-01 13:20:00,
2013-04-01 09:25:00,45.6,43.4,29.66,WSW,250,2.0,6.0,92,0.00,,,0.00,VWS V14.01,2013-04-01 13:25:00,
2013-04-01 09:30:00,46.0,43.8,29.66,SW,229,1.0,6.0,92,0.00,,,0.00,VWS V14.01,2013-04-01 13:30:00,
2013-04-01 09:35:00,46.0,43.8,29.65,SW,225,1.0,4.0,92,0.00,,,0.00,VWS V14.01,2013-04-01 13:35:00,
2013-04-01 09:40:00,46.0,43.5,29.65,WSW,250,0.0,4.0,91,0.00,,,0.00,VWS V14.01,2013-04-01 13:40:00,
2013-04-01 09:45:00,46.0,43.2,29.65,SW,235,1.0,1.0,90,0.00,,,0.00,VWS V14.01,2013-04-01 13:45:00,
2013-04-01 09:50:00,46.3,43.8,29.65,WSW,243,1.0,2.0,91,0.00,,,0.00,VWS V14.01,2013-04-01 13:50:00,
2013-04-01 09:55:00,46.7,43.9,29.65,West,280,1.0,3.0,90,0.00,,,0.00,VWS V14.01,2013-04-01 13:55:00,
2013-04-01 10:00:00,47.3,44.5,29.65,SW,222,1.0,1.0,90,0.00,,,0.00,VWS V14.01,2013-04-01 14:00:00,
2013-04-01 10:05:00,47.6,44.8,29.65,SE,128,0.0,7.0,90,0.00,,,0.00,VWS V14.01,2013-04-01 14:05:00,
2013-04-01 10:10:00,48.0,44.9,29.65,WNW,284,4.0,7.0,89,0.00,,,0.00,VWS V14.01,2013-04-01 14:10:00,
2013-04-01 10:15:00,47.9,44.5,29.64,West,281,4.0,7.0,88,0.00,,,0.00,VWS V14.01,2013-04-01 14:15:00,
2013-04-01 10:20:00,48.2,44.5,29.64,WSW,253,0.0,6.0,87,0.00,,,0.00,VWS V14.01,2013-04-01 14:20:00,
2013-04-01 10:25:00,48.9,44.6,29.64,NW,322,0.0,9.0,85,0.00,,,0.00,VWS V14.01,2013-04-01 14:25:00,
2013-04-01 10:30:00,50.4,47.9,29.64,SW,234,1.0,2.0,91,0.00,,,0.00,VWS V14.01,2013-04-01 14:30:00,
2013-04-01 10:35:00,51.0,46.0,29.64,West,269,0.0,8.0,83,0.00,,,0.00,VWS V14.01,2013-04-01 14:35:00,
2013-04-01 10:40:00,51.1,45.8,29.64,SSW,197,2.0,8.0,82,0.00,,,0.00,VWS V14.01,2013-04-01 14:40:00,
2013-04-01 10:45:00,51.0,46.0,29.64,SW,231,2.0,3.0,83,0.00,,,0.00,VWS V14.01,2013-04-01 14:45:00,
2013-04-01 10:50:00,51.7,46.4,29.64,WSW,240,3.0,3.0,82,0.00,,,0.00,VWS V14.01,2013-04-01 14:50:00,
2013-04-01 10:55:00,52.4,45.8,29.63,WNW,285,4.0,6.0,78,0.00,,,0.00,VWS V14.01,2013-04-01 14:55:00,
2013-04-01 11:00:00,51.7,44.4,29.63,WNW,297,9.0,9.0,76,0.00,,,0.00,VWS V14.01,2013-04-01 15:00:00,
2013-04-01 11:05:00,51.6,44.3,29.63,WNW,297,6.0,12.0,76,0.00,,CLR,0.00,VWS V14.01,2013-04-01 15:05:00,
2013-04-01 11:10:00,52.5,46.2,29.63,West,278,1.0,14.0,79,0.00,,CLR,0.00,VWS V14.01,2013-04-01 15:10:00,
2013-04-01 11:15:00,53.6,45.5,29.63,SW,231,4.0,4.0,74,0.00,,CLR,0.00,VWS V14.01,2013-04-01 15:15:00,
2013-04-01 11:20:00,53.3,44.9,29.63,SW,221,6.0,13.0,73,0.00,,CLR,0.00,VWS V14.01,2013-04-01 15:20:00,
2013-04-01 11:25:00,53.5,44.7,29.63,West,259,6.0,13.0,72,0.00,,CLR,0.00,VWS V14.01,2013-04-01 15:25:00,
2013-04-01 11:30:00,53.4,45.3,29.63,NNW,333,4.0,6.0,74,0.00,,CLR,0.00,VWS V14.01,2013-04-01 15:30:00,
2013-04-01 11:35:00,54.1,45.7,29.63,West,259,6.0,6.0,73,0.00,,CLR,0.00,VWS V14.01,2013-04-01 15:35:00,
2013-04-01 11:40:00,54.3,44.0,29.63,WNW,297,8.0,13.0,68,0.00,,CLR,0.00,VWS V14.01,2013-04-01 15:40:00,
2013-04-01 11:45:00,54.7,44.0,29.63,WNW,290,11.0,11.0,67,0.00,,CLR,0.00,VWS V14.01,2013-04-01 15:45:00,
2013-04-01 11:50:00,54.0,43.3,29.63,West,259,4.0,14.0,67,0.00,,CLR,0.00,VWS V14.01,2013-04-01 15:50:00,
2013-04-01 11:55:00,54.1,43.4,29.63,WNW,295,10.0,16.0,67,0.00,,CLR,0.00,VWS V14.01,2013-04-01 15:55:00,
2013-04-01 11:59:00,53.9,42.4,29.63,NW,319,6.0,6.0,65,0.00,,CLR,0.00,VWS V14.01,2013-04-01 15:59:00,
2013-04-01 12:05:00,54.0,42.9,29.63,NW,318,3.0,17.0,66,0.00,,SCT055,0.00,VWS V14.01,2013-04-01 16:05:00,
2013-04-01 12:10:00,54.7,43.2,29.63,SW,235,3.0,17.0,65,0.00,,SCT055,0.00,VWS V14.01,2013-04-01 16:10:00,
2013-04-01 12:15:00,55.1,43.6,29.62,WNW,296,7.0,10.0,65,0.00,,SCT055,0.00,VWS V14.01,2013-04-01 16:15:00,
2013-04-01 12:20:00,54.6,42.3,29.62,West,279,3.0,11.0,63,0.00,,SCT055,0.00,VWS V14.01,2013-04-01 16:20:00,
2013-04-01 12:25:00,54.2,42.3,29.62,West,271,6.0,15.0,64,0.00,,SCT055,0.00,VWS V14.01,2013-04-01 16:25:00,
2013-04-01 12:30:00,54.5,42.6,29.62,WNW,286,10.0,10.0,64,0.00,,SCT055,0.00,VWS V14.01,2013-04-01 16:30:00,
2013-04-01 12:34:00,54.3,42.0,29.62,SW,233,4.0,14.0,63,0.00,,SCT055,0.00,VWS V14.01,2013-04-01 16:34:00,
2013-04-01 12:39:00,54.4,42.1,29.61,WSW,252,1.0,15.0,63,0.00,,SCT055,0.00,VWS V14.01,2013-04-01 16:39:00,
2013-04-01 12:45:00,55.0,41.4,29.61,West,260,8.0,15.0,60,0.00,,SCT055,0.00,VWS V14.01,2013-04-01 16:45:00,
2013-04-01 12:50:00,54.9,39.5,29.62,NW,304,5.0,18.0,56,0.00,,SCT055,0.00,VWS V14.01,2013-04-01 16:50:00,
2013-04-01 12:55:00,54.6,38.3,29.61,SW,235,7.0,16.0,54,0.00,,SCT055,0.00,VWS V14.01,2013-04-01 16:55:00,
2013-04-01 13:00:00,54.3,39.0,29.61,West,274,3.0,4.0,56,0.00,,SCT055,0.00,VWS V14.01,2013-04-01 17:00:00,
2013-04-01 13:05:00,54.2,39.3,29.61,West,277,2.0,10.0,57,0.00,,OVC075,0.00,VWS V14.01,2013-04-01 17:05:00,
2013-04-01 13:10:00,54.2,38.4,29.61,NW,307,3.0,17.0,55,0.00,,OVC075,0.00,VWS V14.01,2013-04-01 17:10:00,
2013-04-01 13:15:00,54.0,37.8,29.61,SSW,212,10.0,17.0,54,0.00,,OVC075,0.00,VWS V14.01,2013-04-01 17:15:00,
2013-04-01 13:20:00,53.6,38.3,29.62,West,259,3.0,15.0,56,0.00,,OVC075,0.00,VWS V14.01,2013-04-01 17:20:00,
2013-04-01 13:25:00,53.7,38.8,29.62,NW,326,4.0,18.0,57,0.00,,OVC075,0.00,VWS V14.01,2013-04-01 17:25:00,
2013-04-01 13:30:00,53.3,38.9,29.62,NW,306,11.0,11.0,58,0.00,,OVC075,0.00,VWS V14.01,2013-04-01 17:30:00,
2013-04-01 13:34:00,52.9,39.0,29.62,NNW,328,8.0,14.0,59,0.00,,OVC075,0.00,VWS V14.01,2013-04-01 17:34:00,
2013-04-01 13:39:00,53.1,39.6,29.62,East,79,3.0,18.0,60,0.00,,OVC075,0.00,VWS V14.01,2013-04-01 17:39:00,
2013-04-01 13:44:00,53.8,39.8,29.62,WNW,296,3.0,18.0,59,0.00,,OVC075,0.00,VWS V14.01,2013-04-01 17:44:00,
2013-04-01 13:49:00,53.9,39.0,29.63,WNW,294,5.0,10.0,57,0.00,,OVC075,0.00,VWS V14.01,2013-04-01 17:49:00,
2013-04-01 13:54:00,53.6,38.8,29.63,NNE,23,11.0,16.0,57,0.00,,OVC075,0.00,VWS V14.01,2013-04-01 17:54:00,
2013-04-01 13:59:00,53.4,39.5,29.62,NNW,346,3.0,16.0,59,0.00,,OVC075,0.00,VWS V14.01,2013-04-01 17:59:00,
2013-04-01 14:04:00,53.3,39.3,29.63,West,269,5.0,8.0,59,0.00,,OVC070,0.00,VWS V14.01,2013-04-01 18:04:00,
2013-04-01 14:09:00,53.5,39.1,29.62,West,259,4.0,11.0,58,0.00,,OVC070,0.00,VWS V14.01,2013-04-01 18:09:00,
2013-04-01 14:14:00,53.0,38.6,29.62,North,350,1.0,13.0,58,0.00,,OVC070,0.00,VWS V14.01,2013-04-01 18:14:00,
2013-04-01 14:19:00,53.1,38.3,29.62,WSW,257,6.0,7.0,57,0.00,,OVC070,0.00,VWS V14.01,2013-04-01 18:19:00,
2013-04-01 14:24:00,53.1,38.3,29.63,NE,47,1.0,9.0,57,0.00,,OVC070,0.00,VWS V14.01,2013-04-01 18:24:00,
2013-04-01 14:29:00,52.7,37.9,29.63,East,90,2.0,9.0,57,0.00,,OVC070,0.00,VWS V14.01,2013-04-01 18:29:00,
2013-04-01 14:34:00,52.0,37.7,29.63,NNW,332,8.0,10.0,58,0.00,,OVC070,0.00,VWS V14.01,2013-04-01 18:34:00,
2013-04-01 14:39:00,50.8,38.3,29.64,NW,321,2.0,14.0,62,0.00,,OVC070,0.00,VWS V14.01,2013-04-01 18:39:00,
2013-04-01 14:44:00,49.9,37.8,29.64,NNW,342,4.0,14.0,63,0.00,,OVC070,0.00,VWS V14.01,2013-04-01 18:44:00,
2013-04-01 14:49:00,49.2,37.6,29.65,WNW,294,7.0,13.0,64,0.00,,OVC070,0.00,VWS V14.01,2013-04-01 18:49:00,
2013-04-01 14:54:00,48.5,38.1,29.66,WNW,297,6.0,18.0,67,0.00,,OVC070,0.00,VWS V14.01,2013-04-01 18:54:00,
2013-04-01 14:59:00,47.7,38.0,29.66,WSW,257,5.0,15.0,69,0.00,,OVC070,0.00,VWS V14.01,2013-04-01 18:59:00,
2013-04-01 15:04:00,47.4,37.4,29.65,East,79,3.0,8.0,68,0.00,,RA,0.00,VWS V14.01,2013-04-01 19:04:00,
2013-04-01 15:09:00,47.5,37.1,29.66,WSW,253,3.0,9.0,67,0.00,,RA,0.00,VWS V14.01,2013-04-01 19:09:00,
2013-04-01 15:14:00,47.4,35.8,29.66,WNW,298,4.0,14.0,64,0.00,,RA,0.00,VWS V14.01,2013-04-01 19:14:00,
2013-04-01 15:19:00,47.9,35.9,29.65,WSW,237,4.0,8.0,63,0.00,,RA,0.00,VWS V14.01,2013-04-01 19:19:00,
2013-04-01 15:24:00,48.5,35.7,29.64,NE,43,2.0,12.0,61,0.00,,RA,0.00,VWS V14.01,2013-04-01 19:24:00,
2013-04-01 15:29:00,49.6,36.3,29.64,SSW,210,3.0,10.0,60,0.00,,RA,0.00,VWS V14.01,2013-04-01 19:29:00,
2013-04-01 15:34:00,49.7,35.1,29.64,SW,217,1.0,8.0,57,0.00,,RA,0.00,VWS V14.01,2013-04-01 19:34:00,
2013-04-01 15:39:00,49.8,33.8,29.64,North,1,2.0,10.0,54,0.00,,RA,0.00,VWS V14.01,2013-04-01 19:39:00,
2013-04-01 15:44:00,49.5,33.6,29.65,West,262,8.0,10.0,54,0.00,,RA,0.00,VWS V14.01,2013-04-01 19:44:00,
2013-04-01 15:49:00,49.3,33.8,29.66,NNE,20,2.0,9.0,55,0.00,,RA,0.00,VWS V14.01,2013-04-01 19:49:00,
2013-04-01 15:54:00,46.5,35.0,29.67,ENE,75,11.0,11.0,64,0.00,,RA,0.00,VWS V14.01,2013-04-01 19:54:00,
2013-04-01 15:59:00,44.7,35.2,29.67,NNW,342,4.0,11.0,69,0.00,,RA,0.00,VWS V14.01,2013-04-01 19:59:00,
2013-04-01 16:04:00,43.6,35.5,29.68,NNE,19,13.0,13.0,73,0.00,,-RA,0.00,VWS V14.01,2013-04-01 20:04:00,
2013-04-01 16:09:00,42.8,35.8,29.69,NW,325,3.0,13.0,76,0.00,,-RA,0.00,VWS V14.01,2013-04-01 20:09:00,
2013-04-01 16:14:00,42.4,35.7,29.69,North,358,7.0,11.0,77,0.00,,BKN065,0.00,VWS V14.01,2013-04-01 20:14:00,
2013-04-01 16:19:00,42.0,35.0,29.69,ENE,62,1.0,8.0,76,0.00,,BKN065,0.00,VWS V14.01,2013-04-01 20:19:00,
2013-04-01 16:24:00,41.8,34.8,29.69,East,97,1.0,9.0,76,0.00,,BKN065,0.00,VWS V14.01,2013-04-01 20:24:00,
2013-04-01 16:29:00,41.6,34.6,29.68,WNW,297,1.0,11.0,76,0.00,,BKN065,0.00,VWS V14.01,2013-04-01 20:29:00,
2013-04-01 16:34:00,41.6,34.9,29.68,West,280,3.0,6.0,77,0.00,,BKN065,0.00,VWS V14.01,2013-04-01 20:34:00,
2013-04-01 16:39:00,41.7,34.0,29.68,West,264,1.0,8.0,74,0.00,,BKN065,0.00,VWS V14.01,2013-04-01 20:39:00,
2013-04-01 16:44:00,41.9,34.2,29.68,ENE,65,5.0,7.0,74,0.00,,BKN065,0.00,VWS V14.01,2013-04-01 20:44:00,
2013-04-01 16:49:00,42.0,34.0,29.68,NNE,19,3.0,7.0,73,0.00,,BKN065,0.00,VWS V14.01,2013-04-01 20:49:00,
2013-04-01 16:54:00,42.3,33.9,29.67,ENE,77,0.0,10.0,72,0.00,,BKN065,0.00,VWS V14.01,2013-04-01 20:54:00,
2013-04-01 16:59:00,42.5,34.1,29.67,NNE,20,0.0,10.0,72,0.00,,BKN065,0.00,VWS V14.01,2013-04-01 20:59:00,
2013-04-01 17:04:00,42.9,34.2,29.67,NW,314,0.0,2.0,71,0.00,,FEW070,0.00,VWS V14.01,2013-04-01 21:04:00,
2013-04-01 17:09:00,43.1,33.6,29.67,West,278,1.0,5.0,69,0.00,,FEW070,0.00,VWS V14.01,2013-04-01 21:09:00,
2013-04-01 17:14:00,43.3,33.5,29.67,North,1,4.0,7.0,68,0.00,,FEW070,0.00,VWS V14.01,2013-04-01 21:14:00,
2013-04-01 17:19:00,43.7,34.2,29.68,WSW,248,1.0,6.0,69,0.00,,FEW070,0.00,VWS V14.01,2013-04-01 21:19:00,
2013-04-01 17:24:00,44.3,34.0,29.67,NW,314,2.0,7.0,67,0.00,,FEW070,0.00,VWS V14.01,2013-04-01 21:24:00,
2013-04-01 17:29:00,44.7,32.9,29.68,East,101,2.0,7.0,63,0.00,,FEW070,0.00,VWS V14.01,2013-04-01 21:29:00,
2013-04-01 17:34:00,44.9,32.3,29.68,NE,51,9.0,9.0,61,0.00,,FEW070,0.00,VWS V14.01,2013-04-01 21:34:00,
2013-04-01 17:39:00,45.0,31.1,29.68,NW,306,2.0,9.0,58,0.00,,FEW070,0.00,VWS V14.01,2013-04-01 21:39:00,
2013-04-01 17:44:00,45.0,30.7,29.68,NNE,19,4.0,11.0,57,0.00,,FEW070,0.00,VWS V14.01,2013-04-01 21:44:00,
2013-04-01 17:49:00,45.1,30.8,29.68,SW,235,2.0,6.0,57,0.00,,FEW070,0.00,VWS V14.01,2013-04-01 21:49:00,
2013-04-01 17:54:00,45.3,29.6,29.69,NW,311,1.0,7.0,54,0.00,,FEW070,0.00,VWS V14.01,2013-04-01 21:54:00,
2013-04-01 17:59:00,45.6,29.0,29.69,NNW,344,3.0,7.0,52,0.00,,FEW070,0.00,VWS V14.01,2013-04-01 21:59:00,
2013-04-01 18:04:00,46.1,26.5,29.69,NE,37,6.0,13.0,46,0.00,,FEW075,0.00,VWS V14.01,2013-04-01 22:04:00,
2013-04-01 18:09:00,46.5,24.1,29.69,WSW,252,4.0,15.0,41,0.00,,FEW075,0.00,VWS V14.01,2013-04-01 22:09:00,
2013-04-01 18:14:00,46.7,23.1,29.69,NNW,345,3.0,15.0,39,0.00,,FEW075,0.00,VWS V14.01,2013-04-01 22:14:00,
2013-04-01 18:19:00,46.6,21.1,29.69,NW,310,5.0,14.0,36,0.00,,FEW075,0.00,VWS V14.01,2013-04-01 22:19:00,
2013-04-01 18:24:00,46.2,20.1,29.69,East,97,8.0,14.0,35,0.00,,FEW075,0.00,VWS V14.01,2013-04-01 22:24:00,
2013-04-01 18:29:00,45.9,21.1,29.70,NNW,342,2.0,17.0,37,0.00,,FEW075,0.00,VWS V14.01,2013-04-01 22:29:00,
2013-04-01 18:34:00,45.5,20.1,29.70,West,277,4.0,9.0,36,0.00,,FEW075,0.00,VWS V14.01,2013-04-01 22:34:00,
2013-04-01 18:39:00,45.1,19.8,29.70,SW,224,3.0,12.0,36,0.00,,FEW075,0.00,VWS V14.01,2013-04-01 22:39:00,
2013-04-01 18:44:00,44.8,18.8,29.70,North,350,2.0,12.0,35,0.00,,FEW075,0.00,VWS V14.01,2013-04-01 22:44:00,
2013-04-01 18:49:00,44.5,17.9,29.70,South,187,3.0,8.0,34,0.00,,FEW075,0.00,VWS V14.01,2013-04-01 22:49:00,
2013-04-01 18:54:00,44.0,18.1,29.71,WSW,248,2.0,10.0,35,0.00,,FEW075,0.00,VWS V14.01,2013-04-01 22:54:00,
2013-04-01 18:59:00,43.7,17.9,29.71,NW,318,5.0,13.0,35,0.00,,FEW075,0.00,VWS V14.01,2013-04-01 22:59:00,
2013-04-01 19:04:00,43.5,18.3,29.71,NE,44,3.0,12.0,36,0.00,,CLR,0.00,VWS V14.01,2013-04-01 23:04:00,
2013-04-01 19:09:00,43.3,18.8,29.72,North,352,3.0,12.0,37,0.00,,CLR,0.00,VWS V14.01,2013-04-01 23:09:00,
2013-04-01 19:14:00,42.9,19.1,29.72,West,259,1.0,12.0,38,0.00,,CLR,0.00,VWS V14.01,2013-04-01 23:14:00,
2013-04-01 19:19:00,42.7,19.5,29.72,NNE,29,1.0,3.0,39,0.00,,CLR,0.00,VWS V14.01,2013-04-01 23:19:00,
2013-04-01 19:24:00,42.4,19.8,29.72,NNE,24,3.0,9.0,40,0.00,,CLR,0.00,VWS V14.01,2013-04-01 23:24:00,
2013-04-01 19:29:00,42.0,20.0,29.73,WSW,248,1.0,10.0,41,0.00,,CLR,0.00,VWS V14.01,2013-04-01 23:29:00,
2013-04-01 19:34:00,41.7,19.2,29.73,North,359,6.0,11.0,40,0.00,,CLR,0.00,VWS V14.01,2013-04-01 23:34:00,
2013-04-01 19:39:00,41.3,19.4,29.74,ENE,57,3.0,17.0,41,0.00,,CLR,0.00,VWS V14.01,2013-04-01 23:39:00,
2013-04-01 19:44:00,40.9,19.0,29.74,NNW,335,6.0,11.0,41,0.00,,CLR,0.00,VWS V14.01,2013-04-01 23:44:00,
2013-04-01 19:49:00,40.5,19.2,29.75,NNW,342,2.0,10.0,42,0.00,,CLR,0.00,VWS V14.01,2013-04-01 23:49:00,
2013-04-01 19:54:00,40.1,18.9,29.75,NW,314,2.0,9.0,42,0.00,,CLR,0.00,VWS V14.01,2013-04-01 23:54:00,
2013-04-01 19:59:00,39.8,18.6,29.76,NE,37,5.0,10.0,42,0.00,,CLR,0.00,VWS V14.01,2013-04-01 23:59:00,
2013-04-01 20:04:00,39.5,18.3,29.76,NNE,20,4.0,10.0,42,0.00,,CLR,0.00,VWS V14.01,2013-04-02 00:04:00,
2013-04-01 20:09:00,39.1,19.0,29.77,North,6,3.0,10.0,44,0.00,,CLR,0.00,VWS V14.01,2013-04-02 00:09:00,
2013-04-01 20:14:00,38.8,18.8,29.77,NW,319,6.0,13.0,44,0.00,,CLR,0.00,VWS V14.01,2013-04-02 00:14:00,
2013-04-01 20:19:00,38.4,18.9,29.77,East,92,3.0,10.0,45,0.00,,CLR,0.00,VWS V14.01,2013-04-02 00:19:00,
2013-04-01 20:24:00,37.9,18.0,29.78,NNE,32,4.0,12.0,44,0.00,,CLR,0.00,VWS V14.01,2013-04-02 00:24:00,
2013-04-01 20:29:00,37.6,18.2,29.79,NNE,30,4.0,12.0,45,0.00,,CLR,0.00,VWS V14.01,2013-04-02 00:29:00,
2013-04-01 20:34:00,37.3,17.9,29.79,NNE,27,5.0,9.0,45,0.00,,CLR,0.00,VWS V14.01,2013-04-02 00:34:00,
2013-04-01 20:39:00,37.1,17.7,29.80,North,3,2.0,9.0,45,0.00,,CLR,0.00,VWS V14.01,2013-04-02 00:39:00,
2013-04-01 20:44:00,36.8,17.5,29.80,West,259,2.0,9.0,45,0.00,,CLR,0.00,VWS V14.01,2013-04-02 00:44:00,
2013-04-01 20:49:00,36.5,16.7,29.81,NW,323,3.0,8.0,44,0.00,,CLR,0.00,VWS V14.01,2013-04-02 00:49:00,
2013-04-01 20:54:00,36.3,17.0,29.81,NNW,344,3.0,8.0,45,0.00,,CLR,0.00,VWS V14.01,2013-04-02 00:54:00,
2013-04-01 20:59:00,36.0,16.7,29.82,North,349,1.0,8.0,45,0.00,,CLR,0.00,VWS V14.01,2013-04-02 00:59:00,
2013-04-01 21:04:00,35.7,15.9,29.82,NNE,13,5.0,10.0,44,0.00,,CLR,0.00,VWS V14.01,2013-04-02 01:04:00,
2013-04-01 21:09:00,35.5,15.2,29.82,NNE,19,6.0,11.0,43,0.00,,CLR,0.00,VWS V14.01,2013-04-02 01:09:00,
2013-04-01 21:14:00,35.3,14.5,29.82,NNW,330,2.0,17.0,42,0.00,,CLR,0.00,VWS V14.01,2013-04-02 01:14:00,
2013-04-01 21:19:00,35.1,13.8,29.83,NE,43,8.0,10.0,41,0.00,,CLR,0.00,VWS V14.01,2013-04-02 01:19:00,
2013-04-01 21:24:00,34.9,13.0,29.83,NNW,329,2.0,11.0,40,0.00,,CLR,0.00,VWS V14.01,2013-04-02 01:24:00,
2013-04-01 21:29:00,34.7,12.9,29.83,NW,310,4.0,13.0,40,0.00,,CLR,0.00,VWS V14.01,2013-04-02 01:29:00,
2013-04-01 21:34:00,34.5,12.7,29.83,NNE,19,1.0,9.0,40,0.00,,CLR,0.00,VWS V14.01,2013-04-02 01:34:00,
2013-04-01 21:39:00,34.3,11.9,29.83,North,349,2.0,10.0,39,0.00,,CLR,0.00,VWS V14.01,2013-04-02 01:39:00,
2013-04-01 21:44:00,34.1,11.8,29.83,North,7,4.0,10.0,39,0.00,,CLR,0.00,VWS V14.01,2013-04-02 01:44:00,
2013-04-01 21:49:00,33.8,12.6,29.84,North,1,1.0,7.0,41,0.00,,CLR,0.00,VWS V14.01,2013-04-02 01:49:00,
2013-04-01 21:54:00,33.6,12.4,29.84,North,354,3.0,7.0,41,0.00,,CLR,0.00,VWS V14.01,2013-04-02 01:54:00,
2013-04-01 21:59:00,33.3,12.2,29.85,ENE,74,1.0,7.0,41,0.00,,CLR,0.00,VWS V14.01,2013-04-02 01:59:00,
2013-04-01 22:04:00,33.1,13.1,29.85,NNW,345,2.0,2.0,43,0.00,,CLR,0.00,VWS V14.01,2013-04-02 02:04:00,
2013-04-01 22:09:00,32.8,12.2,29.85,NNW,335,1.0,4.0,42,0.00,,CLR,0.00,VWS V14.01,2013-04-02 02:09:00,
2013-04-01 22:14:00,32.5,12.5,29.85,NNE,16,3.0,4.0,43,0.00,,CLR,0.00,VWS V14.01,2013-04-02 02:14:00,
2013-04-01 22:19:00,32.4,12.4,29.85,NNW,343,3.0,4.0,43,0.00,,CLR,0.00,VWS V14.01,2013-04-02 02:19:00,
2013-04-01 22:24:00,32.4,12.4,29.85,ENE,60,2.0,11.0,43,0.00,,CLR,0.00,VWS V14.01,2013-04-02 02:24:00,
2013-04-01 22:29:00,32.3,12.3,29.85,NE,46,1.0,10.0,43,0.00,,CLR,0.00,VWS V14.01,2013-04-02 02:29:00,
2013-04-01 22:34:00,32.3,12.3,29.86,NNW,328,3.0,11.0,43,0.00,,CLR,0.00,VWS V14.01,2013-04-02 02:34:00,
2013-04-01 22:39:00,32.3,12.3,29.86,West,266,3.0,11.0,43,0.00,,CLR,0.00,VWS V14.01,2013-04-02 02:39:00,
2013-04-01 22:44:00,32.3,12.8,29.86,NNE,16,5.0,11.0,44,0.00,,CLR,0.00,VWS V14.01,2013-04-02 02:44:00,
2013-04-01 22:49:00,32.2,12.8,29.86,NNW,330,1.0,8.0,44,0.00,,CLR,0.00,VWS V14.01,2013-04-02 02:49:00,
2013-04-01 22:54:00,31.9,13.0,29.86,NNE,20,6.0,10.0,45,0.00,,CLR,0.00,VWS V14.01,2013-04-02 02:54:00,
2013-04-01 22:59:00,31.9,13.0,29.86,North,1,3.0,8.0,45,0.00,,CLR,0.00,VWS V14.01,2013-04-02 02:59:00,
2013-04-01 23:04:00,31.8,12.9,29.86,NW,322,4.0,8.0,45,0.00,,CLR,0.00,VWS V14.01,2013-04-02 03:04:00,
2013-04-01 23:09:00,31.7,13.3,29.86,NW,322,2.0,9.0,46,0.00,,CLR,0.00,VWS V14.01,2013-04-02 03:09:00,
2013-04-01 23:14:00,31.5,13.1,29.86,North,11,2.0,8.0,46,0.00,,CLR,0.00,VWS V14.01,2013-04-02 03:14:00,
2013-04-01 23:19:00,31.5,12.6,29.87,NNE,23,5.0,9.0,45,0.00,,CLR,0.00,VWS V14.01,2013-04-02 03:19:00,
2013-04-01 23:24:00,31.4,13.5,29.87,NNE,19,2.0,11.0,47,0.00,,CLR,0.00,VWS V14.01,2013-04-02 03:24:00,
2013-04-01 23:29:00,31.2,13.3,29.87,WSW,248,2.0,9.0,47,0.00,,CLR,0.00,VWS V14.01,2013-04-02 03:29:00,
2013-04-01 23:34:00,31.2,12.8,29.87,West,275,3.0,7.0,46,0.00,,CLR,0.00,VWS V14.01,2013-04-02 03:34:00,
2013-04-01 23:39:00,31.1,13.2,29.87,NNE,25,4.0,6.0,47,0.00,,CLR,0.00,VWS V14.01,2013-04-02 03:39:00,
2013-04-01 23:44:00,31.0,13.1,29.87,East,82,2.0,8.0,47,0.00,,CLR,0.00,VWS V14.01,2013-04-02 03:44:00,
2013-04-01 23:49:00,30.9,13.5,29.87,NW,324,0.0,5.0,48,0.00,,CLR,0.00,VWS V14.01,2013-04-02 03:49:00,
2013-04-01 23:54:00,30.8,13.4,29.87,WSW,248,2.0,6.0,48,0.00,,CLR,0.00,VWS V14.01,2013-04-02 03:54:00,
2013-04-01 23:59:00,30.8,13.4,29.88,NW,324,2.0,6.0,48,0.00,,CLR,0.00,VWS V14.01,2013-04-02 03:59:00,